createdAt,value
2023-01-06T00:01:30.198Z,12.31
2023-01-06T00:06:32.049Z,12.35
2023-01-06T00:11:33.719Z,12.39
2023-01-06T00:16:36.423Z,12.38
2023-01-06T00:21:37.790Z,12.37
2023-01-06T00:26:39.170Z,12.32
2023-01-06T00:31:40.524Z,12.25
2023-01-06T00:36:42.002Z,12.32
2023-01-06T00:42:01.777Z,12.37
2023-01-06T00:47:06.951Z,12.42
2023-01-06T00:52:08.412Z,12.54
2023-01-06T00:57:10.179Z,12.54
2023-01-06T01:02:11.632Z,12.58
2023-01-06T01:07:13.126Z,12.55
2023-01-06T01:12:14.622Z,12.69
2023-01-06T01:17:19.250Z,12.76
2023-01-06T01:22:21.633Z,12.82
2023-01-06T01:27:23.008Z,12.82
2023-01-06T01:32:24.380Z,12.83
2023-01-06T01:37:25.730Z,12.96
2023-01-06T01:42:27.113Z,12.90
2023-01-06T01:47:37.291Z,12.90
2023-01-06T01:52:40.722Z,13.00
2023-01-06T01:58:05.500Z,12.97
2023-01-06T02:03:07.494Z,12.88
2023-01-06T02:08:31.733Z,12.84
2023-01-06T02:13:35.635Z,12.81
2023-01-06T02:18:53.755Z,12.73
2023-01-06T02:24:29.157Z,12.79
2023-01-06T02:29:50.092Z,12.75
2023-01-06T02:35:37.593Z,12.80
2023-01-06T02:40:54.571Z,12.75
2023-01-06T02:46:08.494Z,12.64
2023-01-06T02:51:25.389Z,12.58
2023-01-06T02:56:32.059Z,12.24
2023-01-06T03:01:41.378Z,12.09
2023-01-06T03:06:47.105Z,12.08
2023-01-06T03:11:51.308Z,12.04
2023-01-06T03:16:53.500Z,12.07
2023-01-06T03:21:56.415Z,12.15
2023-01-06T03:26:58.912Z,12.18
2023-01-06T03:32:13.703Z,12.27
2023-01-06T03:37:30.201Z,12.33
2023-01-06T03:42:54.431Z,12.43
2023-01-06T03:48:19.501Z,12.45
2023-01-06T03:53:29.093Z,12.41
2023-01-06T03:58:31.040Z,12.36
2023-01-06T04:03:32.645Z,12.34
2023-01-06T04:08:34.110Z,12.33
2023-01-06T04:13:35.420Z,12.32
2023-01-06T04:18:36.778Z,12.33
2023-01-06T04:23:38.168Z,12.37
2023-01-06T04:28:39.616Z,12.44
2023-01-06T04:33:40.989Z,12.46
2023-01-06T04:38:42.357Z,12.50
2023-01-06T04:43:43.787Z,12.48
2023-01-06T04:48:45.417Z,12.50
2023-01-06T04:53:47.659Z,12.48
2023-01-06T04:58:49.014Z,12.53
2023-01-06T05:03:50.908Z,12.68
2023-01-06T05:08:52.304Z,12.63
2023-01-06T05:13:54.141Z,12.55
2023-01-06T05:18:55.989Z,12.54
2023-01-06T05:23:57.404Z,12.52
2023-01-06T05:28:58.839Z,12.47
2023-01-06T05:34:00.240Z,12.52
2023-01-06T05:39:01.711Z,12.54
2023-01-06T05:44:03.304Z,12.54
2023-01-06T05:49:05.027Z,12.50
2023-01-06T05:54:09.705Z,12.46
2023-01-06T05:59:11.067Z,12.47
2023-01-06T06:04:13.389Z,12.50
2023-01-06T06:09:14.723Z,12.47
2023-01-06T06:14:17.302Z,12.40
2023-01-06T06:19:19.208Z,12.48
2023-01-06T06:24:20.568Z,12.49
2023-01-06T06:29:21.896Z,12.44
2023-01-06T06:34:23.264Z,12.43
2023-01-06T06:39:24.576Z,12.43
2023-01-06T06:44:25.945Z,12.42
2023-01-06T06:49:27.307Z,12.43
2023-01-06T06:54:28.635Z,12.38
2023-01-06T06:59:29.972Z,12.39
2023-01-06T07:04:31.394Z,12.36
2023-01-06T07:09:32.763Z,12.32
2023-01-06T07:14:34.093Z,12.31
2023-01-06T07:19:35.476Z,12.26
2023-01-06T07:24:36.805Z,12.30
2023-01-06T07:29:38.206Z,12.31
2023-01-06T07:34:39.566Z,12.29
2023-01-06T07:39:40.976Z,12.32
2023-01-06T07:44:42.410Z,12.38
2023-01-06T07:49:43.754Z,12.44
2023-01-06T07:54:45.092Z,12.46
2023-01-06T07:59:46.459Z,12.53
2023-01-06T08:04:48.569Z,12.54
2023-01-06T08:09:49.894Z,12.50
2023-01-06T08:14:51.208Z,12.55
2023-01-06T08:19:52.539Z,12.61
2023-01-06T08:24:53.937Z,12.63
2023-01-06T08:29:55.341Z,12.69
2023-01-06T08:34:56.742Z,12.67
2023-01-06T08:39:58.108Z,12.67
2023-01-06T08:44:59.597Z,12.62
2023-01-06T08:50:00.985Z,12.61
2023-01-06T08:55:02.427Z,12.65
2023-01-06T09:00:05.809Z,12.72
2023-01-06T09:05:07.621Z,12.75
2023-01-06T09:10:09.671Z,12.76
2023-01-06T09:15:11.325Z,12.76
2023-01-06T09:20:12.667Z,12.72
2023-01-06T09:25:14.401Z,12.83
2023-01-06T09:30:15.992Z,12.85
2023-01-06T09:35:17.358Z,12.85
2023-01-06T09:40:24.037Z,12.86
2023-01-06T09:45:46.606Z,12.90
2023-01-06T09:50:53.959Z,12.93
2023-01-06T09:55:58.099Z,12.90
2023-01-06T10:01:06.656Z,12.92
2023-01-06T10:06:39.188Z,12.94
2023-01-06T10:11:59.501Z,12.97
2023-01-06T10:17:38.441Z,12.93
2023-01-06T10:23:01.227Z,12.98
2023-01-06T10:28:13.683Z,13.04
2023-01-06T10:38:52.274Z,13.19
2023-01-06T10:43:53.896Z,13.23
2023-01-06T10:48:55.269Z,13.28
2023-01-06T10:53:57.756Z,13.28
2023-01-06T10:59:06.594Z,13.35
2023-01-06T11:04:13.284Z,13.30
2023-01-06T11:09:39.329Z,13.27
2023-01-06T11:14:41.519Z,13.28
2023-01-06T11:19:45.223Z,13.28
2023-01-06T11:24:54.313Z,13.37
2023-01-06T11:29:55.781Z,13.37
2023-01-06T11:35:00.560Z,13.47
2023-01-06T11:40:11.329Z,13.55
2023-01-06T11:45:35.180Z,13.58
2023-01-06T11:50:37.051Z,13.57
2023-01-06T11:55:38.593Z,13.52
2023-01-06T12:01:15.999Z,13.61
2023-01-06T12:06:30.333Z,13.74
2023-01-06T12:11:45.764Z,13.77
2023-01-06T12:16:56.848Z,13.87
2023-01-06T12:21:59.265Z,13.97
2023-01-06T12:27:06.056Z,14.09
2023-01-06T12:32:14.282Z,14.17
2023-01-06T12:37:38.140Z,14.22
2023-01-06T12:43:07.356Z,14.27
2023-01-06T12:48:36.376Z,14.24
2023-01-06T12:53:45.391Z,14.21
2023-01-06T12:58:58.861Z,14.15
2023-01-06T13:04:45.120Z,14.20
2023-01-06T13:10:13.191Z,14.21
2023-01-06T13:15:29.046Z,14.18
2023-01-06T13:20:55.330Z,14.04
2023-01-06T13:26:17.967Z,14.07
2023-01-06T13:31:49.738Z,14.04
2023-01-06T13:37:20.365Z,14.02
2023-01-06T13:42:32.069Z,13.99
2023-01-06T13:47:35.455Z,14.01
2023-01-06T13:52:37.173Z,13.98
2023-01-06T13:57:39.470Z,14.05
2023-01-06T14:02:42.644Z,14.03
2023-01-06T14:08:02.841Z,14.01
2023-01-06T14:13:24.573Z,13.90
2023-01-06T14:18:37.973Z,13.83
2023-01-06T14:23:53.884Z,13.83
2023-01-06T14:28:55.221Z,13.80
2023-01-06T14:33:59.871Z,13.72
2023-01-06T14:39:05.994Z,13.74
2023-01-06T14:44:15.550Z,13.68
2023-01-06T14:49:24.833Z,13.63
2023-01-06T14:54:36.308Z,13.57
2023-01-06T14:59:37.708Z,13.57
2023-01-06T15:04:39.698Z,13.51
2023-01-06T15:09:41.157Z,13.55
2023-01-06T15:14:42.463Z,13.55
2023-01-06T15:19:46.471Z,13.65
2023-01-06T15:24:49.071Z,13.63
2023-01-06T15:29:52.946Z,13.61
2023-01-06T15:34:57.931Z,13.64
2023-01-06T15:39:59.244Z,13.68
2023-01-06T15:45:02.237Z,13.72
2023-01-06T15:50:07.619Z,13.75
2023-01-06T15:55:25.540Z,13.60
2023-01-06T16:00:31.165Z,13.57
2023-01-06T16:05:36.835Z,13.55
2023-01-06T16:10:38.570Z,13.55
2023-01-06T16:15:46.279Z,13.55
2023-01-06T16:20:47.724Z,13.65
2023-01-06T16:25:49.747Z,13.64
2023-01-06T16:31:09.509Z,13.56
2023-01-06T16:36:15.896Z,13.47
2023-01-06T16:41:19.024Z,13.45
2023-01-06T16:46:25.768Z,13.51
2023-01-06T16:51:28.767Z,13.41
2023-01-06T16:56:30.209Z,13.39
2023-01-06T17:01:31.772Z,13.44
2023-01-06T17:06:33.160Z,13.43
2023-01-06T17:11:37.677Z,13.40
2023-01-06T17:16:40.806Z,13.33
2023-01-06T17:21:42.171Z,13.25
2023-01-06T17:26:58.254Z,13.24
2023-01-06T17:32:02.247Z,13.23
2023-01-06T17:37:13.119Z,13.20
2023-01-06T17:42:14.390Z,13.19
2023-01-06T17:47:15.718Z,13.15
2023-01-06T17:52:21.453Z,13.08
2023-01-06T17:57:23.091Z,13.08
2023-01-06T18:02:45.727Z,13.02
2023-01-06T18:07:47.051Z,13.01
2023-01-06T18:12:48.380Z,13.07
2023-01-06T18:17:49.722Z,13.10
2023-01-06T18:22:51.104Z,13.04
2023-01-06T18:27:52.648Z,13.10
2023-01-06T18:32:54.121Z,13.09
2023-01-06T18:38:00.281Z,13.12
2023-01-06T18:43:16.988Z,13.07
2023-01-06T18:48:27.637Z,13.12
2023-01-06T18:53:31.423Z,13.08
2023-01-06T18:58:47.897Z,13.09
2023-01-06T19:04:29.802Z,12.95
2023-01-06T19:09:37.844Z,13.01
2023-01-06T19:14:42.792Z,13.02
2023-01-06T19:19:44.230Z,13.06
2023-01-06T19:24:49.720Z,13.03
2023-01-06T19:29:54.018Z,13.09
2023-01-06T19:34:55.594Z,13.12
2023-01-06T19:39:57.899Z,13.12
2023-01-06T19:45:09.154Z,13.13
2023-01-06T19:50:21.452Z,13.10
2023-01-06T19:55:28.317Z,13.18
2023-01-06T20:00:35.541Z,13.17
2023-01-06T20:05:36.927Z,13.21
2023-01-06T20:10:38.244Z,13.17
2023-01-06T20:15:39.625Z,13.12
2023-01-06T20:20:41.018Z,13.04
2023-01-06T20:25:43.140Z,12.96
2023-01-06T20:30:46.366Z,12.84
2023-01-06T20:35:47.842Z,12.84
2023-01-06T20:40:49.738Z,12.83
2023-01-06T20:45:51.180Z,12.86
2023-01-06T20:50:53.391Z,12.81
2023-01-06T20:55:54.850Z,12.84
2023-01-06T21:00:56.281Z,12.82
2023-01-06T21:05:57.697Z,12.82
2023-01-06T21:10:59.031Z,12.84
2023-01-06T21:16:00.359Z,12.85
2023-01-06T21:21:01.702Z,12.96
2023-01-06T21:26:03.160Z,12.95
2023-01-06T21:31:04.873Z,12.93
2023-01-06T21:36:06.517Z,13.08
2023-01-06T21:41:26.486Z,13.02
2023-01-06T21:46:27.897Z,12.95
2023-01-06T21:51:29.348Z,12.93
2023-01-06T21:56:31.308Z,12.92
2023-01-06T22:01:32.829Z,12.86
2023-01-06T22:06:36.203Z,12.91
2023-01-06T22:11:39.574Z,12.98
2023-01-06T22:16:41.710Z,12.90
2023-01-06T22:21:44.546Z,12.87
2023-01-06T22:26:45.891Z,12.93
2023-01-06T22:31:47.214Z,12.94
2023-01-06T22:36:48.547Z,13.10
2023-01-06T22:41:49.967Z,12.98
2023-01-06T22:46:51.343Z,12.96
2023-01-06T22:51:52.656Z,12.87
2023-01-06T22:56:53.995Z,12.79
2023-01-06T23:01:55.395Z,12.86
2023-01-06T23:06:56.771Z,12.86
2023-01-06T23:11:58.099Z,12.80
2023-01-06T23:16:59.432Z,12.94
2023-01-06T23:22:00.769Z,13.01
2023-01-06T23:27:02.110Z,13.06
2023-01-06T23:32:03.608Z,13.00
2023-01-06T23:37:04.957Z,13.02
2023-01-06T23:42:07.148Z,13.03
2023-01-06T23:47:08.491Z,12.96
2023-01-06T23:52:09.848Z,12.99
2023-01-06T23:57:11.235Z,12.99
